Time;durP1;ratioP1;P1;durP2;ratioP2;P2;SDS_P1;SDS_P2;PMS_P1;PMS_P2;Temp;Humidity;BMP_temperature;BMP_pressure;BME280_temperature;BME280_humidity;BME280_pressure;Samples;Min_cycle;Max_cycle;Signal;HPM_P1;HPM_P2
2021/11/05 00:00:09;;;;;;;10.25;1.65;;;8.40;99.90;;;;;;5061049;28;25062;-78
2021/11/05 00:02:35;;;;;;;8.50;1.77;;;8.40;99.90;;;;;;5056847;28;25053;-76
2021/11/05 00:05:02;;;;;;;8.52;1.50;;;8.40;99.90;;;;;;5072428;28;25012;-75
2021/11/05 00:07:28;;;;;;;8.43;1.80;;;8.40;99.90;;;;;;5046343;28;25075;-74
2021/11/05 00:09:54;;;;;;;9.38;1.38;;;8.40;99.90;;;;;;5070099;28;25069;-74
2021/11/05 00:12:20;;;;;;;13.38;3.03;;;8.40;99.90;;;;;;5068210;28;25145;-77
2021/11/05 00:14:46;;;;;;;5.40;1.33;;;8.40;99.90;;;;;;5054203;28;25136;-76
2021/11/05 00:17:13;;;;;;;7.22;2.17;;;8.40;99.90;;;;;;5059631;28;25046;-75
2021/11/05 00:19:39;;;;;;;7.75;1.90;;;8.40;99.90;;;;;;5065166;28;25144;-75
2021/11/05 00:22:05;;;;;;;13.35;1.95;;;8.40;99.90;;;;;;5079511;28;25069;-75
2021/11/05 00:24:31;;;;;;;6.07;1.65;;;8.40;99.90;;;;;;5077390;28;25122;-74
2021/11/05 00:26:57;;;;;;;9.40;1.70;;;8.40;99.90;;;;;;5071394;28;25153;-76
2021/11/05 00:29:23;;;;;;;4.55;1.20;;;8.40;99.90;;;;;;5071668;28;25133;-76
2021/11/05 00:31:49;;;;;;;4.80;0.88;;;8.40;99.90;;;;;;5063299;28;25072;-74
2021/11/05 00:34:18;;;;;;;9.15;1.33;;;8.40;99.90;;;;;;5076630;28;25060;-74
2021/11/05 00:36:48;;;;;;;14.05;1.95;;;8.40;99.90;;;;;;5075746;28;25058;-74
2021/11/05 00:39:14;;;;;;;7.20;1.95;;;8.30;99.90;;;;;;5091698;28;25056;-75
2021/11/05 00:41:40;;;;;;;9.93;1.50;;;8.30;99.90;;;;;;5089856;28;25070;-77
2021/11/05 00:44:08;;;;;;;5.10;0.90;;;8.30;99.90;;;;;;5080418;28;25056;-76
2021/11/05 00:46:34;;;;;;;6.40;1.10;;;8.30;99.90;;;;;;5057540;28;25085;-77
2021/11/05 00:49:00;;;;;;;3.58;1.25;;;8.30;99.90;;;;;;5070975;28;25061;-75
2021/11/05 00:51:29;;;;;;;3.22;1.33;;;8.30;99.90;;;;;;5072419;28;25079;-75
2021/11/05 00:53:55;;;;;;;4.32;1.00;;;8.40;99.90;;;;;;5070648;28;25075;-75
2021/11/05 00:56:21;;;;;;;5.03;0.93;;;8.30;99.90;;;;;;5064679;28;25088;-75
2021/11/05 00:58:46;;;;;;;11.10;1.38;;;8.30;99.90;;;;;;5065994;28;25078;-73
2021/11/05 01:01:12;;;;;;;6.32;1.33;;;8.30;99.90;;;;;;5070247;28;25073;-75
2021/11/05 01:03:38;;;;;;;4.43;0.85;;;8.30;99.90;;;;;;5068561;28;25064;-74
2021/11/05 01:06:03;;;;;;;7.75;1.17;;;8.30;99.90;;;;;;5067946;28;25073;-75
2021/11/05 01:08:29;;;;;;;4.15;1.30;;;8.30;99.90;;;;;;5059055;28;25122;-73
2021/11/05 01:10:55;;;;;;;3.42;0.95;;;8.30;99.90;;;;;;5067816;28;25060;-74
2021/11/05 01:13:21;;;;;;;6.30;1.08;;;8.30;99.90;;;;;;5070099;28;25062;-76
2021/11/05 01:15:47;;;;;;;3.42;1.00;;;8.30;99.90;;;;;;5067896;28;25049;-76
2021/11/05 01:18:12;;;;;;;2.28;0.70;;;8.30;99.90;;;;;;5073895;28;25053;-75
2021/11/05 01:20:39;;;;;;;5.07;0.93;;;8.20;99.90;;;;;;5071008;28;25068;-76
2021/11/05 01:23:06;;;;;;;3.78;0.80;;;8.20;99.90;;;;;;5050980;28;25124;-76
2021/11/05 01:25:32;;;;;;;5.63;0.75;;;8.20;99.90;;;;;;5061171;28;25056;-76
2021/11/05 01:27:58;;;;;;;5.68;0.98;;;8.10;99.90;;;;;;5066708;28;25133;-75
2021/11/05 01:30:25;;;;;;;8.68;1.02;;;8.10;99.90;;;;;;5066975;28;25052;-75
2021/11/05 01:32:50;;;;;;;6.15;1.63;;;8.10;99.90;;;;;;5067109;28;25045;-76
2021/11/05 01:35:17;;;;;;;6.07;0.90;;;8.00;99.90;;;;;;5048189;28;25059;-75
2021/11/05 01:37:44;;;;;;;4.05;1.00;;;8.00;99.90;;;;;;5059728;28;25087;-75
2021/11/05 01:40:11;;;;;;;5.45;0.88;;;8.00;99.90;;;;;;5074037;28;25074;-75
2021/11/05 01:42:38;;;;;;;6.60;0.85;;;8.00;99.90;;;;;;5072401;28;25099;-76
2021/11/05 01:45:05;;;;;;;3.90;1.17;;;7.90;99.90;;;;;;5071175;28;25053;-75
2021/11/05 01:47:31;;;;;;;7.53;1.48;;;8.00;99.90;;;;;;5051324;28;25054;-75
2021/11/05 01:49:57;;;;;;;8.25;0.95;;;7.90;99.90;;;;;;5067754;28;25055;-75
2021/11/05 01:52:23;;;;;;;4.50;1.15;;;7.90;99.90;;;;;;5059780;28;25106;-76
2021/11/05 01:54:50;;;;;;;6.78;0.90;;;7.80;99.90;;;;;;5060317;28;25153;-75
2021/11/05 01:57:16;;;;;;;8.02;1.17;;;7.80;99.90;;;;;;5067088;28;25082;-76
2021/11/05 01:59:41;;;;;;;7.95;1.20;;;7.80;99.90;;;;;;5042815;28;25160;-76
2021/11/05 02:02:08;;;;;;;3.80;1.10;;;7.80;99.90;;;;;;5070814;28;25074;-76
2021/11/05 02:04:35;;;;;;;4.25;0.90;;;7.80;99.90;;;;;;5047800;28;25105;-76
2021/11/05 02:07:01;;;;;;;7.53;1.02;;;7.90;99.90;;;;;;5066611;28;25151;-77
2021/11/05 02:09:29;;;;;;;5.57;1.05;;;7.90;99.90;;;;;;5059524;28;25068;-78
2021/11/05 02:11:59;;;;;;;5.70;1.63;;;8.00;99.90;;;;;;5055044;28;25049;-75
2021/11/05 02:14:27;;;;;;;6.90;1.15;;;8.00;99.90;;;;;;5059531;28;25066;-76
2021/11/05 02:16:55;;;;;;;8.40;1.10;;;8.00;99.90;;;;;;5042119;28;25142;-77
2021/11/05 02:19:25;;;;;;;5.60;0.95;;;8.00;99.90;;;;;;5065105;28;25086;-76
2021/11/05 02:21:53;;;;;;;5.25;1.30;;;8.10;99.90;;;;;;5052037;28;25100;-75
2021/11/05 02:24:21;;;;;;;8.75;1.25;;;8.10;99.90;;;;;;5069432;28;25109;-75
2021/11/05 02:26:48;;;;;;;9.95;1.70;;;8.10;99.90;;;;;;5058125;28;25061;-76
2021/11/05 02:29:15;;;;;;;7.63;1.10;;;8.10;99.90;;;;;;5075146;28;25087;-77
2021/11/05 02:31:41;;;;;;;8.27;1.13;;;8.00;99.90;;;;;;5067399;28;25056;-76
2021/11/05 02:34:06;;;;;;;4.38;1.00;;;8.00;99.90;;;;;;5049988;28;25065;-75
2021/11/05 02:36:33;;;;;;;10.43;1.98;;;8.10;99.90;;;;;;5047025;28;25148;-75
2021/11/05 02:38:59;;;;;;;12.95;1.70;;;8.00;99.90;;;;;;5063896;28;25072;-76
2021/11/05 02:41:25;;;;;;;11.05;2.08;;;8.00;99.90;;;;;;5063011;28;25071;-76
2021/11/05 02:43:52;;;;;;;6.03;1.17;;;8.00;99.90;;;;;;5061031;28;25066;-77
2021/11/05 02:46:18;;;;;;;13.27;1.40;;;8.00;99.90;;;;;;5049463;28;25059;-76
2021/11/05 02:48:44;;;;;;;14.15;1.70;;;8.00;99.90;;;;;;5066195;28;25168;-77
2021/11/05 02:51:10;;;;;;;8.52;2.10;;;8.00;99.90;;;;;;5067062;28;25087;-76
2021/11/05 02:53:37;;;;;;;6.97;1.25;;;8.00;99.90;;;;;;5065611;28;25066;-77
2021/11/05 02:56:03;;;;;;;8.60;3.28;;;8.10;99.90;;;;;;5070959;28;25100;-76
2021/11/05 02:58:29;;;;;;;4.88;1.33;;;8.00;99.90;;;;;;5069696;28;25071;-77
2021/11/05 03:00:56;;;;;;;3.55;1.23;;;7.90;99.90;;;;;;5068868;28;25142;-76
2021/11/05 03:03:22;;;;;;;10.02;1.30;;;7.90;99.90;;;;;;5069995;28;25131;-76
2021/11/05 03:05:47;;;;;;;4.43;1.27;;;7.80;99.90;;;;;;5065728;28;25072;-76
2021/11/05 03:08:13;;;;;;;3.65;1.42;;;7.70;99.90;;;;;;5065669;28;25065;-75
2021/11/05 03:10:39;;;;;;;7.43;1.25;;;7.70;99.90;;;;;;5064554;28;25126;-77
2021/11/05 03:13:05;;;;;;;7.72;1.67;;;7.70;99.90;;;;;;5066336;28;25055;-77
2021/11/05 03:15:30;;;;;;;8.95;1.40;;;7.70;99.90;;;;;;5051032;28;25078;-75
2021/11/05 03:17:58;;;;;;;3.53;1.65;;;7.60;99.90;;;;;;5067569;28;25067;-76
2021/11/05 03:20:24;;;;;;;8.32;1.40;;;7.50;99.90;;;;;;5069169;28;25078;-74
2021/11/05 03:22:50;;;;;;;8.75;1.95;;;7.60;99.90;;;;;;5067306;28;25016;-75
2021/11/05 03:25:17;;;;;;;4.57;1.20;;;7.50;99.90;;;;;;5063465;28;25058;-76
2021/11/05 03:27:43;;;;;;;7.90;1.73;;;7.50;99.90;;;;;;5061496;28;25064;-74
2021/11/05 03:30:11;;;;;;;5.13;1.63;;;7.40;99.90;;;;;;5063988;28;25069;-76
2021/11/05 03:32:38;;;;;;;8.20;1.80;;;7.30;99.90;;;;;;5070139;28;25134;-76
2021/11/05 03:35:05;;;;;;;6.68;1.40;;;7.30;99.90;;;;;;5074511;28;25063;-76
2021/11/05 03:37:31;;;;;;;8.55;1.50;;;7.20;99.90;;;;;;5067417;28;25145;-75
2021/11/05 03:39:56;;;;;;;8.93;1.70;;;7.10;99.90;;;;;;5057015;28;25153;-75
2021/11/05 03:43:12;;;;;;;7.85;1.38;;;7.00;99.90;;;;;;5060833;28;25073;-76
2021/11/05 03:45:37;;;;;;;7.35;1.40;;;7.10;99.90;;;;;;5070430;28;25058;-77
2021/11/05 03:48:04;;;;;;;7.40;1.80;;;7.00;99.90;;;;;;5070786;28;25067;-76
2021/11/05 03:50:29;;;;;;;7.97;1.70;;;6.90;99.90;;;;;;5045737;28;25083;-73
2021/11/05 03:52:55;;;;;;;6.20;1.80;;;7.00;99.90;;;;;;5076156;28;25076;-75
2021/11/05 03:55:21;;;;;;;10.00;1.90;;;7.00;99.90;;;;;;5065324;28;25061;-74
2021/11/05 03:57:47;;;;;;;7.35;1.63;;;6.80;99.90;;;;;;5051827;28;25081;-75
2021/11/05 04:00:14;;;;;;;5.75;2.00;;;6.80;99.90;;;;;;5061224;28;25068;-76
2021/11/05 04:02:40;;;;;;;5.80;1.80;;;6.80;99.90;;;;;;5064241;28;25052;-75
2021/11/05 04:05:06;;;;;;;7.93;2.25;;;6.70;99.90;;;;;;5087482;28;25063;-74
2021/11/05 04:07:32;;;;;;;6.78;2.03;;;6.70;99.90;;;;;;5085618;28;25072;-77
2021/11/05 04:09:58;;;;;;;9.65;1.90;;;6.70;99.90;;;;;;5063235;28;25052;-74
2021/11/05 04:12:25;;;;;;;6.63;1.98;;;6.70;99.90;;;;;;5079789;28;25056;-75
2021/11/05 04:14:54;;;;;;;6.32;1.80;;;6.70;99.90;;;;;;5071376;28;25088;-76
2021/11/05 04:17:19;;;;;;;10.65;2.20;;;6.70;99.90;;;;;;5067816;28;25081;-77
2021/11/05 04:19:47;;;;;;;7.15;1.90;;;6.60;99.90;;;;;;5071986;28;25048;-76
2021/11/05 04:22:13;;;;;;;6.38;1.65;;;6.50;99.90;;;;;;5072070;28;25110;-74
2021/11/05 04:24:38;;;;;;;6.75;2.00;;;6.50;99.90;;;;;;5069395;28;25080;-74
2021/11/05 04:27:05;;;;;;;6.18;2.05;;;6.50;99.90;;;;;;5069063;28;25053;-76
2021/11/05 04:29:31;;;;;;;7.47;1.90;;;6.70;99.90;;;;;;5049414;28;25461;-75
2021/11/05 04:31:57;;;;;;;7.00;1.98;;;6.80;99.90;;;;;;5066280;28;25083;-75
2021/11/05 04:34:23;;;;;;;7.15;2.70;;;6.80;99.90;;;;;;5068559;28;25102;-74
2021/11/05 04:36:48;;;;;;;6.35;2.30;;;6.70;99.90;;;;;;5069277;28;25079;-74
2021/11/05 04:39:17;;;;;;;7.85;2.28;;;6.70;99.90;;;;;;5066499;28;25088;-76
2021/11/05 04:41:44;;;;;;;9.30;2.40;;;6.80;99.90;;;;;;5069981;28;25098;-75
2021/11/05 04:44:11;;;;;;;9.68;2.67;;;6.80;99.90;;;;;;5067448;28;25101;-75
2021/11/05 04:46:37;;;;;;;8.40;3.08;;;6.80;99.90;;;;;;5067845;28;25106;-74
2021/11/05 04:49:03;;;;;;;16.15;3.75;;;6.80;99.90;;;;;;5071670;28;25062;-75
2021/11/05 04:51:30;;;;;;;9.95;3.40;;;6.70;99.90;;;;;;5066072;28;25076;-76
2021/11/05 04:53:55;;;;;;;10.32;3.78;;;6.60;99.90;;;;;;5066474;28;25048;-74
2021/11/05 04:56:21;;;;;;;8.82;3.58;;;6.60;99.90;;;;;;5067550;28;25063;-74
2021/11/05 04:58:47;;;;;;;9.55;2.70;;;6.60;99.90;;;;;;5075661;28;25061;-74
2021/11/05 05:01:13;;;;;;;11.77;4.00;;;6.60;99.90;;;;;;5073328;28;25080;-77
2021/11/05 05:03:40;;;;;;;10.55;3.80;;;6.60;99.90;;;;;;5053140;28;25137;-77
2021/11/05 05:06:06;;;;;;;12.35;4.53;;;6.60;99.90;;;;;;5052427;28;25062;-76
2021/11/05 05:08:32;;;;;;;8.65;4.50;;;6.50;99.90;;;;;;5078501;28;25085;-75
2021/11/05 05:10:58;;;;;;;12.57;4.70;;;6.50;99.90;;;;;;5070379;28;25054;-74
2021/11/05 05:13:23;;;;;;;8.95;4.15;;;6.40;99.90;;;;;;5071147;28;25053;-75
2021/11/05 05:15:50;;;;;;;11.60;4.28;;;6.40;99.90;;;;;;5070279;28;25059;-74
2021/11/05 05:18:16;;;;;;;10.70;6.57;;;6.40;99.90;;;;;;5073352;28;25099;-75
2021/11/05 05:20:45;;;;;;;13.23;5.28;;;6.40;99.90;;;;;;5051037;28;25101;-74
2021/11/05 05:23:12;;;;;;;10.52;4.53;;;6.50;99.90;;;;;;5070522;28;25062;-74
2021/11/05 05:25:38;;;;;;;11.60;4.70;;;6.40;99.90;;;;;;5054341;28;25058;-74
2021/11/05 05:28:04;;;;;;;9.07;4.40;;;6.40;99.90;;;;;;5072250;28;25092;-75
2021/11/05 05:30:30;;;;;;;11.38;4.47;;;6.40;99.90;;;;;;5056336;28;25109;-75
2021/11/05 05:33:20;;;;;;;15.68;4.72;;;6.40;99.90;;;;;;5085136;28;25086;-75
2021/11/05 05:35:51;;;;;;;11.80;4.70;;;6.30;99.90;;;;;;5094902;28;25057;-77
2021/11/05 05:38:35;;;;;;;11.13;4.05;;;6.20;99.90;;;;;;5094514;28;25086;-74
2021/11/05 05:41:53;;;;;;;8.80;4.40;;;6.30;99.90;;;;;;5099220;28;25076;-75
2021/11/05 05:44:19;;;;;;;9.15;4.03;;;6.30;99.90;;;;;;5094802;28;25054;-78
2021/11/05 05:46:45;;;;;;;9.50;4.88;;;6.30;99.90;;;;;;5099437;28;25090;-78
2021/11/05 05:49:13;;;;;;;8.77;4.50;;;6.30;99.90;;;;;;5096692;28;25062;-77
2021/11/05 05:51:39;;;;;;;8.82;4.32;;;6.30;99.90;;;;;;5097979;28;25082;-73
2021/11/05 05:54:06;;;;;;;12.38;4.32;;;6.30;99.90;;;;;;5096245;28;25053;-75
2021/11/05 05:56:32;;;;;;;16.00;5.65;;;6.30;99.90;;;;;;5097225;28;25096;-77
2021/11/05 05:59:05;;;;;;;12.27;4.90;;;6.20;99.90;;;;;;5097285;28;25064;-75
2021/11/05 06:01:36;;;;;;;;;;;6.20;99.90;;;;;;5091703;28;25059;-75
2021/11/05 06:04:02;;;;;;;7.57;4.28;;;6.20;99.90;;;;;;5085424;28;24071;-74
2021/11/05 06:06:32;;;;;;;9.32;3.88;;;6.30;99.90;;;;;;5094518;28;25100;-73
2021/11/05 06:08:57;;;;;;;10.35;4.50;;;6.40;99.90;;;;;;5095310;28;25079;-76
2021/11/05 06:11:24;;;;;;;7.97;4.35;;;6.50;99.90;;;;;;5093107;28;25063;-74
2021/11/05 06:13:50;;;;;;;8.18;4.53;;;6.60;99.90;;;;;;5082446;28;25083;-75
2021/11/05 06:16:15;;;;;;;10.88;4.47;;;6.70;99.90;;;;;;5075203;28;25077;-78
2021/11/05 06:18:43;;;;;;;14.55;4.25;;;6.80;99.90;;;;;;5080502;28;25073;-76
2021/11/05 06:21:10;;;;;;;9.65;4.40;;;6.90;99.90;;;;;;5067433;28;25107;-76
2021/11/05 06:23:35;;;;;;;9.70;4.07;;;6.90;99.90;;;;;;5070318;28;25075;-77
2021/11/05 06:26:01;;;;;;;16.63;5.10;;;7.00;99.90;;;;;;5093386;28;25075;-77
2021/11/05 06:28:27;;;;;;;14.18;5.05;;;6.90;99.90;;;;;;5091132;28;25065;-77
2021/11/05 06:30:54;;;;;;;12.32;4.90;;;6.80;99.90;;;;;;5092256;28;25079;-77
2021/11/05 06:33:30;;;;;;;11.68;5.40;;;6.70;99.90;;;;;;5093966;28;25101;-78
2021/11/05 06:35:58;;;;;;;10.68;4.55;;;6.70;99.90;;;;;;5092939;28;25053;-77
2021/11/05 06:38:25;;;;;;;13.52;4.47;;;6.80;99.90;;;;;;5090534;28;25048;-74
2021/11/05 06:40:51;;;;;;;12.23;5.10;;;6.90;99.90;;;;;;5094555;28;25090;-77
2021/11/05 06:43:18;;;;;;;10.88;4.07;;;6.80;99.90;;;;;;5078751;28;25133;-76
2021/11/05 06:45:50;;;;;;;10.05;4.10;;;6.90;99.90;;;;;;5087709;28;25069;-76
2021/11/05 06:48:16;;;;;;;11.05;4.32;;;6.80;99.90;;;;;;5077773;28;25053;-75
2021/11/05 06:50:44;;;;;;;15.13;4.50;;;6.80;99.90;;;;;;5098024;28;25071;-77
2021/11/05 06:53:32;;;;;;;12.73;4.63;;;6.80;99.90;;;;;;5078214;28;25075;-77
2021/11/05 06:56:02;;;;;;;10.45;4.68;;;6.80;99.90;;;;;;5095130;28;25057;-77
2021/11/05 06:58:35;;;;;;;9.35;4.60;;;6.90;99.90;;;;;;5092499;28;25059;-76
2021/11/05 07:01:20;;;;;;;17.40;5.40;;;6.90;99.90;;;;;;5095290;28;25068;-77
2021/11/05 07:03:54;;;;;;;16.73;4.78;;;6.90;99.90;;;;;;5093092;28;25067;-76
2021/11/05 07:06:21;;;;;;;15.90;5.32;;;6.90;99.90;;;;;;5091262;28;25065;-75
2021/11/05 07:08:49;;;;;;;13.57;4.93;;;6.90;99.90;;;;;;5089920;28;25060;-75
2021/11/05 07:11:16;;;;;;;16.52;4.93;;;6.90;99.90;;;;;;5088415;28;25064;-75
2021/11/05 07:13:41;;;;;;;8.15;4.53;;;6.90;99.90;;;;;;5087191;28;25070;-74
2021/11/05 07:16:08;;;;;;;12.38;4.35;;;7.00;99.90;;;;;;5058297;28;25091;-73
2021/11/05 07:18:33;;;;;;;13.40;4.00;;;7.00;99.90;;;;;;5058130;28;25056;-74
2021/11/05 07:21:03;;;;;;;14.80;4.30;;;7.00;99.90;;;;;;5075883;28;25068;-76
2021/11/05 07:23:32;;;;;;;9.65;3.90;;;7.10;99.90;;;;;;5076175;28;25126;-73
2021/11/05 07:26:00;;;;;;;13.20;4.78;;;7.10;99.90;;;;;;5076636;28;25100;-76
2021/11/05 07:28:26;;;;;;;13.15;5.00;;;7.10;99.90;;;;;;5060368;28;25100;-75
2021/11/05 07:30:51;;;;;;;12.57;4.35;;;7.10;99.90;;;;;;5080559;28;25129;-74
2021/11/05 07:33:17;;;;;;;9.65;4.25;;;7.20;99.90;;;;;;5075236;28;25066;-75
2021/11/05 07:35:43;;;;;;;10.00;4.43;;;7.30;99.90;;;;;;5058914;28;25072;-75
2021/11/05 07:38:08;;;;;;;12.27;4.25;;;7.40;99.90;;;;;;5073768;28;25072;-76
2021/11/05 07:40:34;;;;;;;16.70;4.35;;;7.50;99.90;;;;;;5075465;28;25073;-74
2021/11/05 07:43:00;;;;;;;13.35;4.57;;;7.60;99.90;;;;;;5059218;28;25078;-76
2021/11/05 07:45:26;;;;;;;11.20;3.80;;;7.70;99.90;;;;;;5076059;28;25064;-74
2021/11/05 07:47:56;;;;;;;15.35;4.28;;;7.80;99.90;;;;;;5077000;28;25106;-76
2021/11/05 07:50:23;;;;;;;12.70;5.30;;;7.80;99.90;;;;;;5069209;28;25049;-75
2021/11/05 07:52:49;;;;;;;12.50;5.10;;;7.80;99.90;;;;;;5075628;28;25134;-75
2021/11/05 07:55:15;;;;;;;8.95;4.25;;;7.90;99.90;;;;;;5057295;28;25082;-75
2021/11/05 07:57:41;;;;;;;12.55;4.45;;;8.00;99.90;;;;;;5072426;28;25068;-75
2021/11/05 08:00:12;;;;;;;9.00;4.40;;;8.00;99.90;;;;;;5057007;28;25146;-75
2021/11/05 08:02:38;;;;;;;8.48;3.47;;;8.00;99.90;;;;;;5054966;28;25075;-75
2021/11/05 08:05:05;;;;;;;13.65;3.50;;;8.00;99.90;;;;;;5065199;28;25176;-75
2021/11/05 08:07:31;;;;;;;18.90;4.95;;;8.10;99.90;;;;;;5082068;28;25217;-78
2021/11/05 08:09:57;;;;;;;15.45;4.30;;;8.10;99.90;;;;;;5072769;28;25094;-76
2021/11/05 08:12:23;;;;;;;9.88;3.90;;;8.20;99.90;;;;;;5073483;28;25094;-77
2021/11/05 08:14:49;;;;;;;18.25;4.03;;;8.30;99.90;;;;;;5071153;28;25067;-73
2021/11/05 08:17:15;;;;;;;15.68;4.45;;;8.40;99.90;;;;;;5061837;28;25075;-75
2021/11/05 08:19:43;;;;;;;21.27;6.32;;;8.50;99.90;;;;;;5069632;28;25068;-74
2021/11/05 08:22:09;;;;;;;14.00;5.25;;;8.70;99.90;;;;;;5066021;28;25057;-75
2021/11/05 08:24:34;;;;;;;14.57;5.35;;;8.70;99.90;;;;;;5066573;28;25106;-74
2021/11/05 08:27:00;;;;;;;11.00;4.93;;;8.80;99.90;;;;;;5062071;28;25182;-77
2021/11/05 08:29:26;;;;;;;16.63;5.18;;;8.80;99.90;;;;;;5065164;28;25063;-76
2021/11/05 08:31:53;;;;;;;13.73;5.63;;;8.80;99.90;;;;;;5073386;28;25054;-75
2021/11/05 08:34:23;;;;;;;18.27;5.57;;;8.80;99.90;;;;;;5078154;28;25082;-76
2021/11/05 08:36:48;;;;;;;18.60;5.78;;;8.70;99.90;;;;;;5082487;28;25137;-75
2021/11/05 08:39:14;;;;;;;11.18;5.30;;;8.60;99.90;;;;;;5083221;28;25163;-77
2021/11/05 08:41:39;;;;;;;12.75;5.15;;;8.60;99.90;;;;;;5058554;28;25080;-76
2021/11/05 08:44:05;;;;;;;12.35;5.63;;;8.70;99.90;;;;;;5061901;28;25097;-75
2021/11/05 08:46:32;;;;;;;11.88;4.93;;;8.70;99.90;;;;;;5082868;28;25090;-75
2021/11/05 08:49:01;;;;;;;11.27;4.78;;;8.80;99.90;;;;;;5060727;28;25135;-75
2021/11/05 08:51:29;;;;;;;15.40;4.80;;;9.00;99.90;;;;;;5081718;28;25106;-76
2021/11/05 08:53:55;;;;;;;10.90;4.32;;;9.30;99.90;;;;;;5073468;28;25071;-74
2021/11/05 08:56:21;;;;;;;9.70;3.35;;;9.60;99.90;;;;;;5072110;28;25090;-75
2021/11/05 08:58:48;;;;;;;13.05;3.65;;;9.70;99.90;;;;;;5055948;28;25057;-76
2021/11/05 09:01:14;;;;;;;10.65;3.38;;;9.90;99.90;;;;;;5077651;28;25072;-75
2021/11/05 09:03:40;;;;;;;11.77;3.30;;;9.80;99.90;;;;;;5072284;28;25068;-74
2021/11/05 09:06:06;;;;;;;9.70;3.15;;;9.90;99.90;;;;;;5071894;28;25077;-75
2021/11/05 09:08:33;;;;;;;9.52;2.90;;;9.80;99.90;;;;;;5070722;28;25118;-78
2021/11/05 09:11:01;;;;;;;6.97;2.40;;;9.90;99.90;;;;;;5070860;28;25069;-73
2021/11/05 09:13:31;;;;;;;11.10;3.50;;;10.00;99.90;;;;;;5075328;28;25077;-75
2021/11/05 09:15:57;;;;;;;14.32;4.03;;;10.20;99.90;;;;;;5071981;28;25077;-76
2021/11/05 09:18:28;;;;;;;10.32;3.47;;;10.20;99.90;;;;;;5070131;28;25161;-75
2021/11/05 09:20:55;;;;;;;13.70;2.97;;;10.20;99.90;;;;;;5070417;28;25142;-76
2021/11/05 09:23:23;;;;;;;10.65;2.63;;;10.20;99.90;;;;;;5054494;28;25097;-75
2021/11/05 09:25:49;;;;;;;10.32;2.95;;;10.30;99.90;;;;;;5073259;28;25063;-74
2021/11/05 09:28:14;;;;;;;10.10;2.70;;;10.40;99.90;;;;;;5075190;28;25070;-75
2021/11/05 09:30:41;;;;;;;12.35;3.08;;;10.60;99.90;;;;;;5077379;28;25145;-76
2021/11/05 09:33:07;;;;;;;10.70;2.25;;;10.70;99.90;;;;;;5077665;28;25067;-74
2021/11/05 09:35:32;;;;;;;6.97;2.45;;;10.70;99.90;;;;;;5070838;28;25069;-75
2021/11/05 09:37:58;;;;;;;9.35;3.03;;;10.80;99.90;;;;;;5074170;28;25096;-75
2021/11/05 09:40:27;;;;;;;12.48;3.00;;;10.80;99.90;;;;;;5062876;28;25078;-73
2021/11/05 09:42:55;;;;;;;10.52;2.28;;;10.80;99.90;;;;;;5059589;28;25075;-76
2021/11/05 09:45:25;;;;;;;12.57;3.45;;;10.80;99.90;;;;;;5074911;28;25075;-74
2021/11/05 09:47:50;;;;;;;10.05;2.63;;;10.70;99.90;;;;;;5081059;28;25103;-73
2021/11/05 09:50:21;;;;;;;8.35;2.90;;;10.70;99.90;;;;;;5084281;28;25065;-75
2021/11/05 09:52:47;;;;;;;7.40;2.20;;;10.90;99.90;;;;;;5078660;28;25060;-72
2021/11/05 09:55:14;;;;;;;16.60;3.47;;;10.90;99.90;;;;;;5075421;28;25062;-73
2021/11/05 09:57:40;;;;;;;16.23;2.78;;;11.10;99.90;;;;;;5049531;28;25113;-75
2021/11/05 10:00:09;;;;;;;9.15;1.92;;;11.10;99.90;;;;;;5079413;28;25084;-76
2021/11/05 10:02:36;;;;;;;6.97;2.40;;;11.20;99.90;;;;;;5077266;28;25068;-72
2021/11/05 10:05:03;;;;;;;11.73;1.80;;;11.30;99.90;;;;;;5064108;28;25149;-77
2021/11/05 10:07:29;;;;;;;6.78;1.92;;;11.40;99.90;;;;;;5075666;28;25079;-75
2021/11/05 10:09:58;;;;;;;10.10;2.53;;;11.60;99.90;;;;;;5074943;28;25070;-74
2021/11/05 10:12:27;;;;;;;6.05;2.30;;;11.90;99.90;;;;;;5069341;28;25089;-75
2021/11/05 10:15:00;;;;;;;8.85;2.17;;;12.10;99.90;;;;;;5051990;28;25083;-76
2021/11/05 10:17:26;;;;;;;8.73;1.80;;;12.10;99.90;;;;;;5050389;28;25529;-74
2021/11/05 10:20:04;;;;;;;7.50;1.55;;;12.20;99.90;;;;;;5068855;28;25122;-75
2021/11/05 10:22:53;;;;;;;3.65;1.42;;;12.30;99.90;;;;;;5075407;28;25090;-74
2021/11/05 10:25:21;;;;;;;10.02;1.70;;;12.30;99.90;;;;;;5078566;28;25074;-75
2021/11/05 10:27:59;;;;;;;9.18;1.50;;;12.30;99.90;;;;;;5078627;28;25096;-74
2021/11/05 10:30:25;;;;;;;8.25;1.58;;;12.30;99.90;;;;;;5081171;28;25069;-75
2021/11/05 10:32:56;;;;;;;13.60;2.28;;;12.20;99.90;;;;;;5067092;28;25073;-76
2021/11/05 10:35:22;;;;;;;5.57;1.70;;;12.10;99.90;;;;;;5076231;28;25049;-76
2021/11/05 10:37:53;;;;;;;5.32;1.30;;;12.00;99.90;;;;;;5078237;28;25053;-76
2021/11/05 10:40:19;;;;;;;5.82;0.98;;;11.90;99.90;;;;;;5073895;28;25066;-73
2021/11/05 10:42:46;;;;;;;4.47;0.93;;;11.70;99.90;;;;;;5055956;28;25165;-74
2021/11/05 10:45:18;;;;;;;5.47;1.17;;;11.60;99.90;;;;;;5071776;28;25092;-74
2021/11/05 10:48:06;;;;;;;9.00;1.10;;;11.50;99.90;;;;;;5078056;28;25074;-74
2021/11/05 10:50:47;;;;;;;4.28;1.13;;;11.50;99.90;;;;;;5071126;28;25051;-74
2021/11/05 10:53:18;;;;;;;8.95;1.63;;;11.50;99.90;;;;;;5078967;28;25060;-76
2021/11/05 10:55:55;;;;;;;7.70;1.60;;;11.40;99.90;;;;;;5092483;28;25109;-74
2021/11/05 10:58:27;;;;;;;10.88;1.80;;;11.40;99.90;;;;;;5094412;28;25049;-75
2021/11/05 11:00:57;;;;;;;7.63;1.63;;;11.40;99.90;;;;;;5094055;28;25077;-76
2021/11/05 11:03:26;;;;;;;10.55;1.60;;;11.50;99.90;;;;;;5093165;28;25107;-76
2021/11/05 11:06:15;;;;;;;10.68;1.58;;;11.50;99.90;;;;;;5078042;28;25107;-76
2021/11/05 11:08:49;;;;;;;8.90;1.40;;;11.40;99.90;;;;;;5104399;28;25062;-75
2021/11/05 11:11:31;;;;;;;11.93;2.28;;;11.50;99.90;;;;;;5094570;28;25077;-79
2021/11/05 11:14:18;;;;;;;4.28;1.00;;;11.90;99.90;;;;;;5079850;28;25079;-77
2021/11/05 11:16:46;;;;;;;7.72;0.80;;;12.20;99.90;;;;;;5065332;28;25085;-77
2021/11/05 11:19:22;;;;;;;3.83;1.10;;;12.40;99.90;;;;;;5094047;28;25067;-77
2021/11/05 11:22:08;;;;;;;4.68;1.20;;;12.70;99.90;;;;;;5095628;28;25071;-76
2021/11/05 11:24:44;;;;;;;4.95;1.25;;;13.10;99.90;;;;;;5095298;28;25074;-76
2021/11/05 11:27:22;;;;;;;13.73;2.25;;;13.20;99.90;;;;;;5095469;28;25083;-77
2021/11/05 11:30:09;;;;;;;7.95;1.25;;;12.90;99.90;;;;;;5088192;28;25095;-77
2021/11/05 11:32:41;;;;;;;6.63;1.38;;;12.90;99.90;;;;;;5094110;28;25067;-75
2021/11/05 11:35:07;;;;;;;5.93;1.30;;;13.10;99.90;;;;;;5089811;28;25084;-77
2021/11/05 11:37:35;;;;;;;6.05;1.70;;;13.30;99.90;;;;;;5071623;28;25056;-76
2021/11/05 11:40:02;;;;;;;9.43;1.70;;;13.60;99.90;;;;;;5081028;28;25074;-73
2021/11/05 11:42:28;;;;;;;10.57;1.40;;;13.40;99.90;;;;;;5080279;28;25068;-74
2021/11/05 11:45:00;;;;;;;6.75;1.10;;;13.10;99.90;;;;;;5080226;28;25061;-76
2021/11/05 11:47:42;;;;;;;4.68;1.00;;;12.90;99.90;;;;;;5070934;28;25075;-73
2021/11/05 11:50:57;;;;;;;5.60;1.52;;;12.40;99.90;;;;;;5084705;28;25071;-76
2021/11/05 11:53:31;;;;;;;8.63;1.77;;;12.30;99.90;;;;;;5075411;28;25077;-74
2021/11/05 11:56:00;;;;;;;6.22;1.25;;;12.70;99.90;;;;;;5079279;28;25082;-77
2021/11/05 11:58:26;;;;;;;4.75;1.00;;;13.10;99.90;;;;;;5079205;28;25073;-74
2021/11/05 12:00:51;;;;;;;8.85;1.48;;;13.30;99.90;;;;;;5044348;28;25059;-77
2021/11/05 12:03:27;;;;;;;12.80;2.13;;;13.50;99.90;;;;;;5062688;28;25048;-76
2021/11/05 12:06:00;;;;;;;7.57;1.90;;;13.40;99.90;;;;;;5057374;28;25084;-76
2021/11/05 12:08:28;;;;;;;8.25;1.80;;;13.20;99.90;;;;;;5078585;28;25053;-77
2021/11/05 12:11:22;;;;;;;6.88;1.50;;;13.30;99.90;;;;;;5064851;28;25173;-75
2021/11/05 12:14:09;;;;;;;6.40;1.60;;;13.00;99.90;;;;;;5068309;28;25082;-76
2021/11/05 12:17:03;;;;;;;10.90;2.15;;;12.70;99.90;;;;;;5085455;28;25065;-79
2021/11/05 12:19:59;;;;;;;16.45;2.20;;;12.60;99.90;;;;;;5084828;28;25070;-73
2021/11/05 12:22:27;;;;;;;9.05;1.60;;;12.50;99.90;;;;;;5067425;28;25065;-74
2021/11/05 12:25:13;;;;;;;10.80;1.55;;;12.40;99.90;;;;;;5095896;28;25084;-77
2021/11/05 12:28:02;;;;;;;12.82;1.42;;;12.30;99.90;;;;;;5085260;28;25061;-76
2021/11/05 12:30:28;;;;;;;9.25;1.63;;;12.10;99.90;;;;;;5082153;28;25060;-76
2021/11/05 12:32:55;;;;;;;11.98;2.33;;;12.30;99.90;;;;;;5062108;28;25161;-78
2021/11/05 12:35:23;;;;;;;9.48;1.50;;;12.20;99.90;;;;;;5082478;28;25102;-78
2021/11/05 12:38:08;;;;;;;13.52;2.15;;;12.20;99.90;;;;;;5076183;28;25081;-77
2021/11/05 12:40:45;;;;;;;6.57;1.50;;;12.00;99.90;;;;;;5078781;28;25110;-78
2021/11/05 12:43:13;;;;;;;12.20;1.75;;;11.90;99.90;;;;;;5074743;28;25064;-75
2021/11/05 12:46:11;;;;;;;4.90;1.30;;;12.00;99.90;;;;;;5075985;28;25055;-76
2021/11/05 12:48:39;;;;;;;8.63;1.25;;;12.10;99.90;;;;;;5053464;28;25070;-78
2021/11/05 12:51:10;;;;;;;6.97;1.42;;;12.10;99.90;;;;;;5072679;28;25085;-78
2021/11/05 12:53:42;;;;;;;9.70;1.67;;;12.20;99.90;;;;;;5058027;28;25099;-76
2021/11/05 12:56:14;;;;;;;5.20;1.20;;;12.20;99.90;;;;;;5075245;28;25087;-77
2021/11/05 12:58:41;;;;;;;6.65;1.27;;;12.40;99.90;;;;;;5076885;28;25387;-75